sensor_id;sensor_type;location;lat;lon;timestamp;P1;durP1;ratioP1;P2;durP2;ratioP2
22334;SDS011;11335;43.848;25.958;2023-04-03T00:01:37;4.40;;;2.97;;
22334;SDS011;11335;43.848;25.958;2023-04-03T00:04:23;3.33;;;2.47;;
22334;SDS011;11335;43.848;25.958;2023-04-03T00:07:09;3.95;;;2.70;;
22334;SDS011;11335;43.848;25.958;2023-04-03T00:09:54;3.78;;;2.90;;
22334;SDS011;11335;43.848;25.958;2023-04-03T00:12:40;3.42;;;2.67;;
22334;SDS011;11335;43.848;25.958;2023-04-03T00:15:26;3.25;;;2.33;;
22334;SDS011;11335;43.848;25.958;2023-04-03T00:18:12;3.08;;;2.30;;
22334;SDS011;11335;43.848;25.958;2023-04-03T00:20:57;7.25;;;2.53;;
22334;SDS011;11335;43.848;25.958;2023-04-03T00:23:43;3.20;;;2.08;;
22334;SDS011;11335;43.848;25.958;2023-04-03T00:26:28;4.25;;;2.60;;
22334;SDS011;11335;43.848;25.958;2023-04-03T00:29:14;4.57;;;2.60;;
22334;SDS011;11335;43.848;25.958;2023-04-03T00:32:00;3.67;;;2.80;;
22334;SDS011;11335;43.848;25.958;2023-04-03T00:34:45;6.78;;;3.28;;
22334;SDS011;11335;43.848;25.958;2023-04-03T00:37:31;4.90;;;3.35;;
22334;SDS011;11335;43.848;25.958;2023-04-03T00:40:17;6.18;;;3.40;;
22334;SDS011;11335;43.848;25.958;2023-04-03T00:43:05;5.65;;;3.72;;
22334;SDS011;11335;43.848;25.958;2023-04-03T00:45:56;4.63;;;3.30;;
22334;SDS011;11335;43.848;25.958;2023-04-03T00:48:43;4.07;;;2.92;;
22334;SDS011;11335;43.848;25.958;2023-04-03T00:51:30;3.63;;;2.80;;
22334;SDS011;11335;43.848;25.958;2023-04-03T00:54:15;4.07;;;3.05;;
22334;SDS011;11335;43.848;25.958;2023-04-03T00:57:01;4.40;;;2.85;;
22334;SDS011;11335;43.848;25.958;2023-04-03T00:59:49;4.68;;;2.58;;
22334;SDS011;11335;43.848;25.958;2023-04-03T01:02:36;3.53;;;2.60;;
22334;SDS011;11335;43.848;25.958;2023-04-03T01:05:22;3.42;;;2.50;;
22334;SDS011;11335;43.848;25.958;2023-04-03T01:08:07;2.80;;;2.50;;
22334;SDS011;11335;43.848;25.958;2023-04-03T01:10:53;5.57;;;2.70;;
22334;SDS011;11335;43.848;25.958;2023-04-03T01:13:39;3.08;;;2.47;;
22334;SDS011;11335;43.848;25.958;2023-04-03T01:16:25;3.92;;;2.80;;
22334;SDS011;11335;43.848;25.958;2023-04-03T01:19:12;6.13;;;2.97;;
22334;SDS011;11335;43.848;25.958;2023-04-03T01:22:16;3.92;;;2.90;;
22334;SDS011;11335;43.848;25.958;2023-04-03T01:25:05;4.20;;;2.75;;
22334;SDS011;11335;43.848;25.958;2023-04-03T01:27:50;4.22;;;3.20;;
22334;SDS011;11335;43.848;25.958;2023-04-03T01:30:38;4.03;;;3.00;;
22334;SDS011;11335;43.848;25.958;2023-04-03T01:33:26;4.47;;;3.22;;
22334;SDS011;11335;43.848;25.958;2023-04-03T01:36:17;5.47;;;3.40;;
22334;SDS011;11335;43.848;25.958;2023-04-03T01:39:03;6.47;;;3.50;;
22334;SDS011;11335;43.848;25.958;2023-04-03T01:41:49;4.45;;;3.35;;
22334;SDS011;11335;43.848;25.958;2023-04-03T01:44:35;5.05;;;3.40;;
22334;SDS011;11335;43.848;25.958;2023-04-03T01:47:21;4.55;;;3.22;;
22334;SDS011;11335;43.848;25.958;2023-04-03T01:50:06;4.20;;;3.47;;
22334;SDS011;11335;43.848;25.958;2023-04-03T01:52:52;4.18;;;3.03;;
22334;SDS011;11335;43.848;25.958;2023-04-03T01:55:38;4.32;;;3.33;;
22334;SDS011;11335;43.848;25.958;2023-04-03T01:58:23;4.50;;;3.05;;
22334;SDS011;11335;43.848;25.958;2023-04-03T02:01:09;4.03;;;3.03;;
22334;SDS011;11335;43.848;25.958;2023-04-03T02:03:55;4.55;;;3.15;;
22334;SDS011;11335;43.848;25.958;2023-04-03T02:06:41;4.50;;;2.92;;
22334;SDS011;11335;43.848;25.958;2023-04-03T02:09:26;4.50;;;3.00;;
22334;SDS011;11335;43.848;25.958;2023-04-03T02:12:12;4.22;;;3.17;;
22334;SDS011;11335;43.848;25.958;2023-04-03T02:14:57;3.88;;;3.10;;
22334;SDS011;11335;43.848;25.958;2023-04-03T02:17:43;3.97;;;2.83;;
22334;SDS011;11335;43.848;25.958;2023-04-03T02:20:28;5.55;;;3.47;;
22334;SDS011;11335;43.848;25.958;2023-04-03T02:23:14;4.63;;;3.20;;
22334;SDS011;11335;43.848;25.958;2023-04-03T02:26:07;5.53;;;3.35;;
22334;SDS011;11335;43.848;25.958;2023-04-03T02:28:53;4.05;;;3.08;;
22334;SDS011;11335;43.848;25.958;2023-04-03T02:31:38;4.35;;;3.38;;
22334;SDS011;11335;43.848;25.958;2023-04-03T02:34:24;5.65;;;3.38;;
22334;SDS011;11335;43.848;25.958;2023-04-03T02:37:09;4.78;;;3.70;;
22334;SDS011;11335;43.848;25.958;2023-04-03T02:39:55;5.00;;;3.67;;
22334;SDS011;11335;43.848;25.958;2023-04-03T02:42:41;5.55;;;3.83;;
22334;SDS011;11335;43.848;25.958;2023-04-03T02:45:26;7.18;;;4.90;;
22334;SDS011;11335;43.848;25.958;2023-04-03T02:48:12;10.00;;;5.70;;
22334;SDS011;11335;43.848;25.958;2023-04-03T02:50:57;9.23;;;6.22;;
22334;SDS011;11335;43.848;25.958;2023-04-03T02:53:43;10.55;;;6.38;;
22334;SDS011;11335;43.848;25.958;2023-04-03T02:56:29;10.10;;;6.47;;
22334;SDS011;11335;43.848;25.958;2023-04-03T02:59:14;11.82;;;7.30;;
22334;SDS011;11335;43.848;25.958;2023-04-03T03:02:00;10.75;;;6.47;;
22334;SDS011;11335;43.848;25.958;2023-04-03T03:04:46;8.98;;;5.90;;
22334;SDS011;11335;43.848;25.958;2023-04-03T03:07:31;10.65;;;5.97;;
22334;SDS011;11335;43.848;25.958;2023-04-03T03:10:17;7.88;;;5.57;;
22334;SDS011;11335;43.848;25.958;2023-04-03T03:13:03;8.05;;;5.28;;
22334;SDS011;11335;43.848;25.958;2023-04-03T03:15:48;9.35;;;5.53;;
22334;SDS011;11335;43.848;25.958;2023-04-03T03:18:34;10.40;;;4.78;;
22334;SDS011;11335;43.848;25.958;2023-04-03T03:21:19;5.72;;;4.50;;
22334;SDS011;11335;43.848;25.958;2023-04-03T03:24:05;6.20;;;4.53;;
22334;SDS011;11335;43.848;25.958;2023-04-03T03:26:51;6.95;;;4.70;;
22334;SDS011;11335;43.848;25.958;2023-04-03T03:29:36;8.57;;;4.63;;
22334;SDS011;11335;43.848;25.958;2023-04-03T03:32:22;5.97;;;4.45;;
22334;SDS011;11335;43.848;25.958;2023-04-03T03:35:08;6.18;;;4.28;;
22334;SDS011;11335;43.848;25.958;2023-04-03T03:37:53;6.47;;;4.78;;
22334;SDS011;11335;43.848;25.958;2023-04-03T03:40:39;7.00;;;5.00;;
22334;SDS011;11335;43.848;25.958;2023-04-03T03:43:25;8.35;;;5.57;;
22334;SDS011;11335;43.848;25.958;2023-04-03T03:46:10;6.63;;;5.18;;
22334;SDS011;11335;43.848;25.958;2023-04-03T03:48:56;7.00;;;4.70;;
22334;SDS011;11335;43.848;25.958;2023-04-03T03:51:42;7.95;;;5.45;;
22334;SDS011;11335;43.848;25.958;2023-04-03T03:54:27;8.45;;;5.57;;
22334;SDS011;11335;43.848;25.958;2023-04-03T03:57:13;7.85;;;5.40;;
22334;SDS011;11335;43.848;25.958;2023-04-03T03:59:59;11.43;;;7.18;;
22334;SDS011;11335;43.848;25.958;2023-04-03T04:02:44;18.38;;;12.40;;
22334;SDS011;11335;43.848;25.958;2023-04-03T04:05:30;13.65;;;9.70;;
22334;SDS011;11335;43.848;25.958;2023-04-03T04:08:15;14.77;;;7.90;;
22334;SDS011;11335;43.848;25.958;2023-04-03T04:11:01;14.68;;;9.95;;
22334;SDS011;11335;43.848;25.958;2023-04-03T04:13:47;17.73;;;10.30;;
22334;SDS011;11335;43.848;25.958;2023-04-03T04:16:32;13.13;;;6.47;;
22334;SDS011;11335;43.848;25.958;2023-04-03T04:19:18;14.70;;;7.97;;
22334;SDS011;11335;43.848;25.958;2023-04-03T04:22:04;11.25;;;6.40;;
22334;SDS011;11335;43.848;25.958;2023-04-03T04:24:49;13.80;;;6.30;;
22334;SDS011;11335;43.848;25.958;2023-04-03T04:27:35;15.65;;;6.85;;
22334;SDS011;11335;43.848;25.958;2023-04-03T04:30:20;10.38;;;5.95;;
22334;SDS011;11335;43.848;25.958;2023-04-03T04:33:06;12.93;;;6.80;;
22334;SDS011;11335;43.848;25.958;2023-04-03T04:35:52;16.63;;;7.63;;
22334;SDS011;11335;43.848;25.958;2023-04-03T04:38:38;19.73;;;7.75;;
22334;SDS011;11335;43.848;25.958;2023-04-03T04:41:23;16.35;;;7.38;;
22334;SDS011;11335;43.848;25.958;2023-04-03T04:44:10;16.08;;;7.45;;
22334;SDS011;11335;43.848;25.958;2023-04-03T04:46:55;12.40;;;7.03;;
22334;SDS011;11335;43.848;25.958;2023-04-03T04:49:41;12.77;;;7.28;;
22334;SDS011;11335;43.848;25.958;2023-04-03T04:52:26;14.88;;;7.75;;
22334;SDS011;11335;43.848;25.958;2023-04-03T04:55:12;20.45;;;9.02;;
22334;SDS011;11335;43.848;25.958;2023-04-03T04:57:57;19.05;;;9.63;;
22334;SDS011;11335;43.848;25.958;2023-04-03T05:00:43;23.05;;;10.82;;
22334;SDS011;11335;43.848;25.958;2023-04-03T05:03:29;27.33;;;10.98;;
22334;SDS011;11335;43.848;25.958;2023-04-03T05:06:14;27.30;;;11.23;;
22334;SDS011;11335;43.848;25.958;2023-04-03T05:09:00;22.58;;;11.63;;
22334;SDS011;11335;43.848;25.958;2023-04-03T05:11:46;23.13;;;12.32;;
22334;SDS011;11335;43.848;25.958;2023-04-03T05:14:31;18.30;;;11.18;;
22334;SDS011;11335;43.848;25.958;2023-04-03T05:17:17;24.08;;;11.60;;
22334;SDS011;11335;43.848;25.958;2023-04-03T05:20:03;21.73;;;10.63;;
22334;SDS011;11335;43.848;25.958;2023-04-03T05:22:49;22.17;;;10.60;;
22334;SDS011;11335;43.848;25.958;2023-04-03T05:25:37;18.08;;;10.95;;
22334;SDS011;11335;43.848;25.958;2023-04-03T05:28:22;22.73;;;11.48;;
22334;SDS011;11335;43.848;25.958;2023-04-03T05:31:08;19.95;;;11.25;;
22334;SDS011;11335;43.848;25.958;2023-04-03T05:33:54;24.77;;;11.23;;
22334;SDS011;11335;43.848;25.958;2023-04-03T05:36:39;23.55;;;12.25;;
22334;SDS011;11335;43.848;25.958;2023-04-03T05:39:25;23.90;;;12.32;;
22334;SDS011;11335;43.848;25.958;2023-04-03T05:42:10;22.13;;;11.52;;
22334;SDS011;11335;43.848;25.958;2023-04-03T05:44:56;24.27;;;10.82;;
22334;SDS011;11335;43.848;25.958;2023-04-03T05:47:42;30.90;;;11.25;;
22334;SDS011;11335;43.848;25.958;2023-04-03T05:50:28;18.42;;;11.05;;
22334;SDS011;11335;43.848;25.958;2023-04-03T05:53:21;17.95;;;10.20;;
22334;SDS011;11335;43.848;25.958;2023-04-03T05:56:07;20.38;;;10.88;;
22334;SDS011;11335;43.848;25.958;2023-04-03T05:58:53;23.42;;;10.63;;
22334;SDS011;11335;43.848;25.958;2023-04-03T06:01:38;19.23;;;10.38;;
22334;SDS011;11335;43.848;25.958;2023-04-03T06:04:24;17.25;;;11.13;;
22334;SDS011;11335;43.848;25.958;2023-04-03T06:07:12;18.48;;;10.20;;
22334;SDS011;11335;43.848;25.958;2023-04-03T06:09:58;16.90;;;9.93;;
22334;SDS011;11335;43.848;25.958;2023-04-03T06:12:44;12.43;;;8.25;;
22334;SDS011;11335;43.848;25.958;2023-04-03T06:15:29;22.25;;;8.40;;
22334;SDS011;11335;43.848;25.958;2023-04-03T06:18:15;14.57;;;8.15;;
22334;SDS011;11335;43.848;25.958;2023-04-03T06:24:15;12.50;;;6.45;;
22334;SDS011;11335;43.848;25.958;2023-04-03T06:27:04;8.02;;;6.20;;
22334;SDS011;11335;43.848;25.958;2023-04-03T06:29:49;20.38;;;7.15;;
22334;SDS011;11335;43.848;25.958;2023-04-03T06:32:38;8.90;;;6.50;;
22334;SDS011;11335;43.848;25.958;2023-04-03T06:35:29;6.55;;;5.35;;
22334;SDS011;11335;43.848;25.958;2023-04-03T06:38:15;7.78;;;5.82;;
22334;SDS011;11335;43.848;25.958;2023-04-03T06:41:01;8.18;;;5.75;;
22334;SDS011;11335;43.848;25.958;2023-04-03T06:43:47;10.77;;;5.65;;
22334;SDS011;11335;43.848;25.958;2023-04-03T06:46:32;16.13;;;6.22;;
22334;SDS011;11335;43.848;25.958;2023-04-03T06:49:18;9.23;;;6.13;;
22334;SDS011;11335;43.848;25.958;2023-04-03T06:52:04;7.07;;;5.05;;
22334;SDS011;11335;43.848;25.958;2023-04-03T06:54:50;9.65;;;5.20;;
22334;SDS011;11335;43.848;25.958;2023-04-03T06:57:42;9.80;;;6.07;;
22334;SDS011;11335;43.848;25.958;2023-04-03T07:00:27;6.97;;;5.45;;
22334;SDS011;11335;43.848;25.958;2023-04-03T07:03:13;8.82;;;6.78;;
22334;SDS011;11335;43.848;25.958;2023-04-03T07:05:59;8.23;;;5.43;;
22334;SDS011;11335;43.848;25.958;2023-04-03T07:08:45;10.10;;;6.30;;
22334;SDS011;11335;43.848;25.958;2023-04-03T07:11:31;6.78;;;5.10;;
22334;SDS011;11335;43.848;25.958;2023-04-03T07:14:17;7.68;;;5.53;;
22334;SDS011;11335;43.848;25.958;2023-04-03T07:17:03;9.88;;;5.75;;
22334;SDS011;11335;43.848;25.958;2023-04-03T07:19:49;6.80;;;4.97;;
22334;SDS011;11335;43.848;25.958;2023-04-03T07:22:37;45.97;;;7.47;;
22334;SDS011;11335;43.848;25.958;2023-04-03T07:25:23;7.55;;;5.30;;
22334;SDS011;11335;43.848;25.958;2023-04-03T07:28:08;6.47;;;5.10;;
22334;SDS011;11335;43.848;25.958;2023-04-03T07:30:59;6.78;;;4.57;;
22334;SDS011;11335;43.848;25.958;2023-04-03T07:33:45;5.65;;;4.40;;
22334;SDS011;11335;43.848;25.958;2023-04-03T07:36:31;5.05;;;4.32;;
22334;SDS011;11335;43.848;25.958;2023-04-03T07:39:18;7.15;;;4.97;;
22334;SDS011;11335;43.848;25.958;2023-04-03T07:42:04;8.95;;;4.90;;
22334;SDS011;11335;43.848;25.958;2023-04-03T07:44:49;5.57;;;4.60;;
22334;SDS011;11335;43.848;25.958;2023-04-03T07:47:35;7.40;;;5.07;;
22334;SDS011;11335;43.848;25.958;2023-04-03T07:50:21;8.82;;;5.68;;
22334;SDS011;11335;43.848;25.958;2023-04-03T07:53:07;12.43;;;6.28;;
22334;SDS011;11335;43.848;25.958;2023-04-03T07:55:53;13.38;;;7.03;;
22334;SDS011;11335;43.848;25.958;2023-04-03T07:58:41;8.18;;;6.25;;
22334;SDS011;11335;43.848;25.958;2023-04-03T08:01:26;9.82;;;6.55;;
22334;SDS011;11335;43.848;25.958;2023-04-03T08:04:12;11.88;;;7.30;;
22334;SDS011;11335;43.848;25.958;2023-04-03T08:06:58;9.93;;;6.72;;
22334;SDS011;11335;43.848;25.958;2023-04-03T08:09:46;9.90;;;6.47;;
22334;SDS011;11335;43.848;25.958;2023-04-03T08:12:34;12.13;;;6.53;;
22334;SDS011;11335;43.848;25.958;2023-04-03T08:15:22;17.00;;;7.10;;
22334;SDS011;11335;43.848;25.958;2023-04-03T08:18:07;12.80;;;6.72;;
22334;SDS011;11335;43.848;25.958;2023-04-03T08:20:53;12.25;;;6.60;;
22334;SDS011;11335;43.848;25.958;2023-04-03T08:23:39;11.55;;;6.00;;
22334;SDS011;11335;43.848;25.958;2023-04-03T08:26:26;12.13;;;6.28;;
22334;SDS011;11335;43.848;25.958;2023-04-03T08:29:12;9.05;;;5.88;;
22334;SDS011;11335;43.848;25.958;2023-04-03T08:31:58;7.40;;;5.05;;
22334;SDS011;11335;43.848;25.958;2023-04-03T08:34:44;9.85;;;5.57;;
22334;SDS011;11335;43.848;25.958;2023-04-03T08:37:29;11.32;;;5.63;;
22334;SDS011;11335;43.848;25.958;2023-04-03T08:40:16;11.93;;;4.97;;
22334;SDS011;11335;43.848;25.958;2023-04-03T08:43:04;10.77;;;5.88;;
22334;SDS011;11335;43.848;25.958;2023-04-03T08:45:53;8.63;;;5.47;;
22334;SDS011;11335;43.848;25.958;2023-04-03T08:48:41;8.90;;;5.22;;
22334;SDS011;11335;43.848;25.958;2023-04-03T08:51:33;7.47;;;4.75;;
22334;SDS011;11335;43.848;25.958;2023-04-03T08:55:02;8.30;;;4.68;;
22334;SDS011;11335;43.848;25.958;2023-04-03T08:57:33;9.57;;;5.13;;
22334;SDS011;11335;43.848;25.958;2023-04-03T09:00:20;12.00;;;5.20;;
22334;SDS011;11335;43.848;25.958;2023-04-03T09:03:11;11.68;;;6.00;;
22334;SDS011;11335;43.848;25.958;2023-04-03T09:06:02;9.07;;;5.10;;
22334;SDS011;11335;43.848;25.958;2023-04-03T09:12:42;11.55;;;6.13;;
22334;SDS011;11335;43.848;25.958;2023-04-03T09:21:08;21.42;;;6.10;;
22334;SDS011;11335;43.848;25.958;2023-04-03T09:23:59;12.75;;;5.40;;
22334;SDS011;11335;43.848;25.958;2023-04-03T09:27:01;11.63;;;5.43;;
22334;SDS011;11335;43.848;25.958;2023-04-03T09:29:48;17.85;;;5.80;;
22334;SDS011;11335;43.848;25.958;2023-04-03T09:32:37;16.35;;;5.97;;
22334;SDS011;11335;43.848;25.958;2023-04-03T09:35:25;11.90;;;5.63;;
22334;SDS011;11335;43.848;25.958;2023-04-03T09:41:05;12.75;;;5.47;;
22334;SDS011;11335;43.848;25.958;2023-04-03T09:43:53;9.02;;;5.38;;
22334;SDS011;11335;43.848;25.958;2023-04-03T09:46:39;10.23;;;4.85;;
22334;SDS011;11335;43.848;25.958;2023-04-03T09:49:25;10.88;;;4.85;;
22334;SDS011;11335;43.848;25.958;2023-04-03T09:52:22;12.13;;;4.25;;
22334;SDS011;11335;43.848;25.958;2023-04-03T09:58:04;7.22;;;4.78;;
22334;SDS011;11335;43.848;25.958;2023-04-03T10:00:57;10.98;;;4.70;;
22334;SDS011;11335;43.848;25.958;2023-04-03T10:03:43;13.93;;;6.00;;
22334;SDS011;11335;43.848;25.958;2023-04-03T10:06:32;8.85;;;4.60;;
22334;SDS011;11335;43.848;25.958;2023-04-03T10:12:11;9.43;;;4.35;;
22334;SDS011;11335;43.848;25.958;2023-04-03T10:15:01;7.13;;;4.38;;
22334;SDS011;11335;43.848;25.958;2023-04-03T10:20:47;9.75;;;4.68;;
22334;SDS011;11335;43.848;25.958;2023-04-03T10:23:51;6.13;;;3.97;;
22334;SDS011;11335;43.848;25.958;2023-04-03T10:32:46;9.27;;;4.28;;
22334;SDS011;11335;43.848;25.958;2023-04-03T10:38:20;4.47;;;3.83;;
22334;SDS011;11335;43.848;25.958;2023-04-03T10:44:07;10.55;;;4.10;;
22334;SDS011;11335;43.848;25.958;2023-04-03T10:47:04;4.45;;;3.13;;
22334;SDS011;11335;43.848;25.958;2023-04-03T10:50:15;7.22;;;3.20;;
22334;SDS011;11335;43.848;25.958;2023-04-03T10:56:01;6.68;;;3.30;;
22334;SDS011;11335;43.848;25.958;2023-04-03T10:58:48;8.07;;;3.65;;
22334;SDS011;11335;43.848;25.958;2023-04-03T11:01:38;5.03;;;3.33;;
22334;SDS011;11335;43.848;25.958;2023-04-03T11:04:24;7.47;;;3.10;;
22334;SDS011;11335;43.848;25.958;2023-04-03T11:07:26;7.78;;;3.38;;
22334;SDS011;11335;43.848;25.958;2023-04-03T11:10:17;11.25;;;3.38;;
22334;SDS011;11335;43.848;25.958;2023-04-03T11:13:30;6.50;;;2.88;;
22334;SDS011;11335;43.848;25.958;2023-04-03T11:16:19;5.43;;;3.17;;
22334;SDS011;11335;43.848;25.958;2023-04-03T11:19:11;6.35;;;3.13;;
22334;SDS011;11335;43.848;25.958;2023-04-03T11:22:04;5.18;;;2.90;;
22334;SDS011;11335;43.848;25.958;2023-04-03T11:27:45;7.00;;;2.90;;
22334;SDS011;11335;43.848;25.958;2023-04-03T11:30:33;5.63;;;3.00;;
22334;SDS011;11335;43.848;25.958;2023-04-03T11:33:34;8.43;;;3.33;;
22334;SDS011;11335;43.848;25.958;2023-04-03T11:36:23;8.70;;;3.30;;
22334;SDS011;11335;43.848;25.958;2023-04-03T11:39:16;5.47;;;2.80;;
22334;SDS011;11335;43.848;25.958;2023-04-03T11:42:16;5.68;;;3.00;;
22334;SDS011;11335;43.848;25.958;2023-04-03T11:48:41;5.18;;;2.45;;
22334;SDS011;11335;43.848;25.958;2023-04-03T11:54:34;7.63;;;2.95;;
22334;SDS011;11335;43.848;25.958;2023-04-03T11:57:44;8.43;;;3.00;;
22334;SDS011;11335;43.848;25.958;2023-04-03T12:09:02;5.45;;;3.00;;
22334;SDS011;11335;43.848;25.958;2023-04-03T12:11:48;9.75;;;2.78;;
22334;SDS011;11335;43.848;25.958;2023-04-03T12:14:34;3.63;;;2.10;;
22334;SDS011;11335;43.848;25.958;2023-04-03T12:17:25;4.90;;;2.10;;
22334;SDS011;11335;43.848;25.958;2023-04-03T12:23:31;7.18;;;3.20;;
22334;SDS011;11335;43.848;25.958;2023-04-03T12:26:20;8.05;;;3.30;;
22334;SDS011;11335;43.848;25.958;2023-04-03T12:29:24;5.80;;;3.35;;
22334;SDS011;11335;43.848;25.958;2023-04-03T12:35:31;5.90;;;3.35;;
22334;SDS011;11335;43.848;25.958;2023-04-03T12:38:23;7.65;;;3.60;;
22334;SDS011;11335;43.848;25.958;2023-04-03T12:41:23;9.57;;;3.90;;
22334;SDS011;11335;43.848;25.958;2023-04-03T12:47:24;11.02;;;3.45;;
22334;SDS011;11335;43.848;25.958;2023-04-03T12:50:32;5.53;;;3.72;;
22334;SDS011;11335;43.848;25.958;2023-04-03T12:53:33;9.65;;;4.30;;
22334;SDS011;11335;43.848;25.958;2023-04-03T13:02:39;9.75;;;4.20;;
22334;SDS011;11335;43.848;25.958;2023-04-03T13:05:23;5.63;;;3.70;;
22334;SDS011;11335;43.848;25.958;2023-04-03T13:08:10;7.85;;;3.80;;
22334;SDS011;11335;43.848;25.958;2023-04-03T13:10:59;7.90;;;3.65;;
22334;SDS011;11335;43.848;25.958;2023-04-03T13:16:41;7.32;;;3.42;;
22334;SDS011;11335;43.848;25.958;2023-04-03T13:19:27;7.82;;;4.32;;
22334;SDS011;11335;43.848;25.958;2023-04-03T13:22:46;10.75;;;4.43;;
22334;SDS011;11335;43.848;25.958;2023-04-03T13:25:29;12.82;;;4.70;;
22334;SDS011;11335;43.848;25.958;2023-04-03T13:28:20;7.65;;;3.90;;
22334;SDS011;11335;43.848;25.958;2023-04-03T13:34:12;12.30;;;5.85;;
22334;SDS011;11335;43.848;25.958;2023-04-03T13:36:59;12.45;;;5.88;;
22334;SDS011;11335;43.848;25.958;2023-04-03T13:39:45;11.50;;;5.05;;
22334;SDS011;11335;43.848;25.958;2023-04-03T13:42:31;9.30;;;4.90;;
22334;SDS011;11335;43.848;25.958;2023-04-03T13:45:24;8.70;;;4.78;;
22334;SDS011;11335;43.848;25.958;2023-04-03T13:48:19;17.38;;;5.75;;
22334;SDS011;11335;43.848;25.958;2023-04-03T13:54:01;12.82;;;5.40;;
22334;SDS011;11335;43.848;25.958;2023-04-03T13:56:54;10.45;;;6.10;;
22334;SDS011;11335;43.848;25.958;2023-04-03T13:59:41;11.27;;;4.97;;
22334;SDS011;11335;43.848;25.958;2023-04-03T14:02:31;9.77;;;5.88;;
22334;SDS011;11335;43.848;25.958;2023-04-03T14:05:17;10.85;;;6.15;;
22334;SDS011;11335;43.848;25.958;2023-04-03T14:08:06;16.15;;;5.82;;
22334;SDS011;11335;43.848;25.958;2023-04-03T14:10:52;10.50;;;6.07;;
22334;SDS011;11335;43.848;25.958;2023-04-03T14:13:38;12.15;;;6.95;;
22334;SDS011;11335;43.848;25.958;2023-04-03T14:16:27;15.35;;;6.68;;
22334;SDS011;11335;43.848;25.958;2023-04-03T14:19:17;11.25;;;6.70;;
22334;SDS011;11335;43.848;25.958;2023-04-03T14:22:11;8.10;;;6.60;;
22334;SDS011;11335;43.848;25.958;2023-04-03T14:24:57;9.25;;;6.70;;
22334;SDS011;11335;43.848;25.958;2023-04-03T14:27:45;10.40;;;7.43;;
22334;SDS011;11335;43.848;25.958;2023-04-03T14:30:31;8.52;;;6.82;;
22334;SDS011;11335;43.848;25.958;2023-04-03T14:33:18;9.07;;;6.93;;
22334;SDS011;11335;43.848;25.958;2023-04-03T14:36:12;8.73;;;6.55;;
22334;SDS011;11335;43.848;25.958;2023-04-03T14:38:58;11.00;;;6.88;;
22334;SDS011;11335;43.848;25.958;2023-04-03T14:41:45;12.52;;;7.18;;
22334;SDS011;11335;43.848;25.958;2023-04-03T14:44:30;8.63;;;6.90;;
22334;SDS011;11335;43.848;25.958;2023-04-03T14:47:18;8.70;;;6.72;;
22334;SDS011;11335;43.848;25.958;2023-04-03T14:50:06;16.88;;;7.10;;
22334;SDS011;11335;43.848;25.958;2023-04-03T14:52:54;13.25;;;7.70;;
22334;SDS011;11335;43.848;25.958;2023-04-03T14:55:41;13.57;;;6.82;;
22334;SDS011;11335;43.848;25.958;2023-04-03T14:58:27;8.27;;;6.53;;
22334;SDS011;11335;43.848;25.958;2023-04-03T15:01:12;10.00;;;6.80;;
22334;SDS011;11335;43.848;25.958;2023-04-03T15:03:59;12.25;;;7.30;;
22334;SDS011;11335;43.848;25.958;2023-04-03T15:06:45;9.10;;;6.80;;
22334;SDS011;11335;43.848;25.958;2023-04-03T15:09:31;14.75;;;7.53;;
22334;SDS011;11335;43.848;25.958;2023-04-03T15:12:16;11.98;;;8.00;;
22334;SDS011;11335;43.848;25.958;2023-04-03T15:15:02;16.73;;;7.55;;
22334;SDS011;11335;43.848;25.958;2023-04-03T15:17:50;9.45;;;7.03;;
22334;SDS011;11335;43.848;25.958;2023-04-03T15:20:38;12.43;;;7.97;;
22334;SDS011;11335;43.848;25.958;2023-04-03T15:23:24;14.25;;;8.27;;
22334;SDS011;11335;43.848;25.958;2023-04-03T15:26:11;14.13;;;8.70;;
22334;SDS011;11335;43.848;25.958;2023-04-03T15:28:56;19.85;;;9.15;;
22334;SDS011;11335;43.848;25.958;2023-04-03T15:31:42;13.65;;;8.52;;
22334;SDS011;11335;43.848;25.958;2023-04-03T15:34:28;16.08;;;9.45;;
22334;SDS011;11335;43.848;25.958;2023-04-03T15:37:14;16.80;;;8.95;;
22334;SDS011;11335;43.848;25.958;2023-04-03T15:40:04;17.08;;;9.93;;
22334;SDS011;11335;43.848;25.958;2023-04-03T15:42:50;18.55;;;10.73;;
22334;SDS011;11335;43.848;25.958;2023-04-03T15:45:36;22.17;;;10.93;;
22334;SDS011;11335;43.848;25.958;2023-04-03T15:48:22;14.25;;;9.60;;
22334;SDS011;11335;43.848;25.958;2023-04-03T15:51:07;15.55;;;8.75;;
22334;SDS011;11335;43.848;25.958;2023-04-03T15:53:53;15.73;;;9.15;;
22334;SDS011;11335;43.848;25.958;2023-04-03T15:56:38;14.43;;;9.43;;
22334;SDS011;11335;43.848;25.958;2023-04-03T15:59:24;18.13;;;9.95;;
22334;SDS011;11335;43.848;25.958;2023-04-03T16:02:10;18.23;;;10.15;;
22334;SDS011;11335;43.848;25.958;2023-04-03T16:04:58;15.85;;;9.77;;
22334;SDS011;11335;43.848;25.958;2023-04-03T16:07:44;14.98;;;9.55;;
22334;SDS011;11335;43.848;25.958;2023-04-03T16:10:30;16.27;;;9.80;;
22334;SDS011;11335;43.848;25.958;2023-04-03T16:13:16;15.35;;;10.00;;
22334;SDS011;11335;43.848;25.958;2023-04-03T16:16:01;20.52;;;10.23;;
22334;SDS011;11335;43.848;25.958;2023-04-03T16:18:47;14.85;;;9.38;;
22334;SDS011;11335;43.848;25.958;2023-04-03T16:21:33;13.20;;;9.02;;
22334;SDS011;11335;43.848;25.958;2023-04-03T16:24:19;14.40;;;9.32;;
22334;SDS011;11335;43.848;25.958;2023-04-03T16:27:04;14.68;;;9.07;;
22334;SDS011;11335;43.848;25.958;2023-04-03T16:29:50;12.10;;;9.02;;
22334;SDS011;11335;43.848;25.958;2023-04-03T16:32:36;15.00;;;9.30;;
22334;SDS011;11335;43.848;25.958;2023-04-03T16:35:22;18.02;;;9.90;;
22334;SDS011;11335;43.848;25.958;2023-04-03T16:38:07;15.25;;;9.00;;
22334;SDS011;11335;43.848;25.958;2023-04-03T16:40:53;13.45;;;8.80;;
22334;SDS011;11335;43.848;25.958;2023-04-03T16:43:42;12.07;;;8.80;;
22334;SDS011;11335;43.848;25.958;2023-04-03T16:46:27;12.95;;;9.60;;
22334;SDS011;11335;43.848;25.958;2023-04-03T16:49:13;14.55;;;9.45;;
22334;SDS011;11335;43.848;25.958;2023-04-03T16:51:59;15.48;;;9.50;;
22334;SDS011;11335;43.848;25.958;2023-04-03T16:54:45;12.80;;;9.40;;
22334;SDS011;11335;43.848;25.958;2023-04-03T16:57:32;15.32;;;9.60;;
22334;SDS011;11335;43.848;25.958;2023-04-03T17:00:18;14.60;;;9.07;;
22334;SDS011;11335;43.848;25.958;2023-04-03T17:03:03;15.82;;;9.88;;
22334;SDS011;11335;43.848;25.958;2023-04-03T17:05:49;16.48;;;10.07;;
22334;SDS011;11335;43.848;25.958;2023-04-03T17:08:34;16.65;;;10.45;;
22334;SDS011;11335;43.848;25.958;2023-04-03T17:11:20;15.75;;;10.68;;
22334;SDS011;11335;43.848;25.958;2023-04-03T17:14:06;16.88;;;10.73;;
22334;SDS011;11335;43.848;25.958;2023-04-03T17:16:52;17.90;;;10.55;;
22334;SDS011;11335;43.848;25.958;2023-04-03T17:19:37;15.25;;;11.25;;
22334;SDS011;11335;43.848;25.958;2023-04-03T17:22:24;17.77;;;11.98;;
22334;SDS011;11335;43.848;25.958;2023-04-03T17:25:10;15.40;;;11.57;;
22334;SDS011;11335;43.848;25.958;2023-04-03T17:27:56;16.00;;;12.27;;
22334;SDS011;11335;43.848;25.958;2023-04-03T17:30:42;17.08;;;11.88;;
22334;SDS011;11335;43.848;25.958;2023-04-03T17:33:28;15.98;;;12.27;;
22334;SDS011;11335;43.848;25.958;2023-04-03T17:36:15;15.95;;;12.35;;
22334;SDS011;11335;43.848;25.958;2023-04-03T17:39:01;17.17;;;13.00;;
22334;SDS011;11335;43.848;25.958;2023-04-03T17:41:46;15.68;;;12.00;;
22334;SDS011;11335;43.848;25.958;2023-04-03T17:44:33;15.57;;;11.63;;
22334;SDS011;11335;43.848;25.958;2023-04-03T17:47:19;13.52;;;11.43;;